Mutton Bay, Canada
Current Conditions -  °F | °C
As of 2:08 PM on Saturday 25 Oct 2014 (Local Time) from CWDH Reporting Station
Broken Clouds Broken Clouds  
Wind Chill: 33°   Ceiling: 2000
Heat Index: 40°   Visibility: 9mi
Dew Point: 33°   Wind: 14mph
Humidity: 75%   Direction: 50°NE
Pressure: 29.6"   Gusts: 23mph
Location:  50.78°N, 59.02°W
Report Text: CWDH 251708Z AUTO 05012G20KT 9SM BKN020 05/01 A2960 RMK PK WND 05022/// T00470006 WSI/SWOB
Loading
Personal Weather Stations






























Interactive Weather Map
Tropical Storm Tracking
New forecast layout! Learn more

10-Day Weather Forecast

Advertisements
Track Severe Weather on mobile